sensor_id;sensor_type;location;lat;lon;timestamp;P1;durP1;ratioP1;P2;durP2;ratioP2
80136;SDS011;69466;55.948;37.484;2023-08-08T00:01:40;4.93;;;3.47;;
80136;SDS011;69466;55.948;37.484;2023-08-08T00:04:09;6.55;;;2.92;;
80136;SDS011;69466;55.948;37.484;2023-08-08T00:06:36;6.88;;;3.10;;
80136;SDS011;69466;55.948;37.484;2023-08-08T00:09:03;6.22;;;2.88;;
80136;SDS011;69466;55.948;37.484;2023-08-08T00:11:30;8.85;;;3.00;;
80136;SDS011;69466;55.948;37.484;2023-08-08T00:13:57;7.05;;;3.15;;
80136;SDS011;69466;55.948;37.484;2023-08-08T00:16:23;5.53;;;3.00;;
80136;SDS011;69466;55.948;37.484;2023-08-08T00:18:50;9.25;;;3.67;;
80136;SDS011;69466;55.948;37.484;2023-08-08T00:21:20;6.68;;;3.53;;
80136;SDS011;69466;55.948;37.484;2023-08-08T00:23:47;5.63;;;2.83;;
80136;SDS011;69466;55.948;37.484;2023-08-08T00:26:13;5.10;;;2.97;;
80136;SDS011;69466;55.948;37.484;2023-08-08T00:28:39;7.35;;;3.58;;
80136;SDS011;69466;55.948;37.484;2023-08-08T00:31:07;5.43;;;3.35;;
80136;SDS011;69466;55.948;37.484;2023-08-08T00:33:34;5.75;;;3.13;;
80136;SDS011;69466;55.948;37.484;2023-08-08T00:36:00;5.47;;;2.90;;
80136;SDS011;69466;55.948;37.484;2023-08-08T00:38:26;6.97;;;3.80;;
80136;SDS011;69466;55.948;37.484;2023-08-08T00:40:53;7.53;;;3.15;;
80136;SDS011;69466;55.948;37.484;2023-08-08T00:43:19;5.15;;;2.85;;
80136;SDS011;69466;55.948;37.484;2023-08-08T00:45:45;5.20;;;3.25;;
80136;SDS011;69466;55.948;37.484;2023-08-08T00:48:11;5.63;;;3.33;;
80136;SDS011;69466;55.948;37.484;2023-08-08T00:50:41;4.38;;;3.05;;
80136;SDS011;69466;55.948;37.484;2023-08-08T00:53:08;7.53;;;3.35;;
80136;SDS011;69466;55.948;37.484;2023-08-08T00:55:35;6.03;;;3.45;;
80136;SDS011;69466;55.948;37.484;2023-08-08T00:58:02;7.03;;;3.00;;
80136;SDS011;69466;55.948;37.484;2023-08-08T01:00:29;6.50;;;3.53;;
80136;SDS011;69466;55.948;37.484;2023-08-08T01:02:55;5.82;;;3.20;;
80136;SDS011;69466;55.948;37.484;2023-08-08T01:05:21;8.25;;;3.42;;
80136;SDS011;69466;55.948;37.484;2023-08-08T01:07:59;6.32;;;3.13;;
80136;SDS011;69466;55.948;37.484;2023-08-08T01:10:32;5.72;;;3.33;;
80136;SDS011;69466;55.948;37.484;2023-08-08T01:13:02;5.10;;;2.78;;
80136;SDS011;69466;55.948;37.484;2023-08-08T01:15:31;6.60;;;3.10;;
80136;SDS011;69466;55.948;37.484;2023-08-08T01:18:04;4.70;;;2.72;;
80136;SDS011;69466;55.948;37.484;2023-08-08T01:20:33;4.78;;;3.15;;
80136;SDS011;69466;55.948;37.484;2023-08-08T01:25:38;6.32;;;3.13;;
80136;SDS011;69466;55.948;37.484;2023-08-08T01:28:05;4.43;;;3.25;;
80136;SDS011;69466;55.948;37.484;2023-08-08T01:30:32;6.75;;;3.30;;
80136;SDS011;69466;55.948;37.484;2023-08-08T01:33:01;7.53;;;3.08;;
80136;SDS011;69466;55.948;37.484;2023-08-08T01:35:32;5.90;;;3.30;;
80136;SDS011;69466;55.948;37.484;2023-08-08T01:38:09;5.57;;;3.33;;
80136;SDS011;69466;55.948;37.484;2023-08-08T01:40:39;7.50;;;4.45;;
80136;SDS011;69466;55.948;37.484;2023-08-08T01:43:08;5.80;;;3.58;;
80136;SDS011;69466;55.948;37.484;2023-08-08T01:45:35;7.60;;;3.95;;
80136;SDS011;69466;55.948;37.484;2023-08-08T01:48:06;7.28;;;3.92;;
80136;SDS011;69466;55.948;37.484;2023-08-08T01:50:36;6.40;;;3.47;;
80136;SDS011;69466;55.948;37.484;2023-08-08T01:53:03;6.63;;;4.20;;
80136;SDS011;69466;55.948;37.484;2023-08-08T01:55:30;6.55;;;3.72;;
80136;SDS011;69466;55.948;37.484;2023-08-08T01:57:56;7.93;;;4.40;;
80136;SDS011;69466;55.948;37.484;2023-08-08T02:00:23;8.07;;;5.05;;
80136;SDS011;69466;55.948;37.484;2023-08-08T02:02:49;6.60;;;4.15;;
80136;SDS011;69466;55.948;37.484;2023-08-08T02:05:15;6.05;;;4.20;;
80136;SDS011;69466;55.948;37.484;2023-08-08T02:07:41;5.75;;;3.90;;
80136;SDS011;69466;55.948;37.484;2023-08-08T02:10:07;7.20;;;4.30;;
80136;SDS011;69466;55.948;37.484;2023-08-08T02:12:33;7.50;;;4.38;;
80136;SDS011;69466;55.948;37.484;2023-08-08T02:15:00;7.90;;;4.60;;
80136;SDS011;69466;55.948;37.484;2023-08-08T02:17:29;5.78;;;3.97;;
80136;SDS011;69466;55.948;37.484;2023-08-08T02:19:56;5.72;;;3.90;;
80136;SDS011;69466;55.948;37.484;2023-08-08T02:22:22;6.15;;;3.22;;
80136;SDS011;69466;55.948;37.484;2023-08-08T02:24:48;5.88;;;4.07;;
80136;SDS011;69466;55.948;37.484;2023-08-08T02:27:14;4.75;;;3.47;;
80136;SDS011;69466;55.948;37.484;2023-08-08T02:29:40;6.45;;;3.78;;
80136;SDS011;69466;55.948;37.484;2023-08-08T02:32:06;6.00;;;3.92;;
80136;SDS011;69466;55.948;37.484;2023-08-08T02:34:32;7.47;;;3.58;;
80136;SDS011;69466;55.948;37.484;2023-08-08T02:36:58;6.88;;;3.58;;
80136;SDS011;69466;55.948;37.484;2023-08-08T02:39:23;5.93;;;3.42;;
80136;SDS011;69466;55.948;37.484;2023-08-08T02:41:50;6.20;;;4.38;;
80136;SDS011;69466;55.948;37.484;2023-08-08T02:44:16;6.03;;;3.40;;
80136;SDS011;69466;55.948;37.484;2023-08-08T02:46:42;4.93;;;3.40;;
80136;SDS011;69466;55.948;37.484;2023-08-08T02:49:08;5.50;;;3.65;;
80136;SDS011;69466;55.948;37.484;2023-08-08T02:51:34;5.65;;;3.70;;
80136;SDS011;69466;55.948;37.484;2023-08-08T02:54:01;7.93;;;3.10;;
80136;SDS011;69466;55.948;37.484;2023-08-08T02:56:29;5.30;;;3.15;;
80136;SDS011;69466;55.948;37.484;2023-08-08T02:58:55;6.20;;;3.30;;
80136;SDS011;69466;55.948;37.484;2023-08-08T03:01:21;5.80;;;3.47;;
80136;SDS011;69466;55.948;37.484;2023-08-08T03:03:47;8.90;;;4.28;;
80136;SDS011;69466;55.948;37.484;2023-08-08T03:06:14;7.30;;;3.85;;
80136;SDS011;69466;55.948;37.484;2023-08-08T03:08:40;6.85;;;3.45;;
80136;SDS011;69466;55.948;37.484;2023-08-08T03:11:06;6.72;;;3.33;;
80136;SDS011;69466;55.948;37.484;2023-08-08T03:13:33;5.63;;;3.60;;
80136;SDS011;69466;55.948;37.484;2023-08-08T03:15:59;7.43;;;4.05;;
80136;SDS011;69466;55.948;37.484;2023-08-08T03:18:25;6.72;;;4.20;;
80136;SDS011;69466;55.948;37.484;2023-08-08T03:20:52;6.95;;;4.72;;
80136;SDS011;69466;55.948;37.484;2023-08-08T03:23:19;6.35;;;3.13;;
80136;SDS011;69466;55.948;37.484;2023-08-08T03:25:45;7.82;;;3.35;;
80136;SDS011;69466;55.948;37.484;2023-08-08T03:28:13;6.10;;;3.50;;
80136;SDS011;69466;55.948;37.484;2023-08-08T03:30:39;5.47;;;3.25;;
80136;SDS011;69466;55.948;37.484;2023-08-08T03:33:07;6.13;;;3.25;;
80136;SDS011;69466;55.948;37.484;2023-08-08T03:35:33;7.40;;;3.17;;
80136;SDS011;69466;55.948;37.484;2023-08-08T03:38:00;7.70;;;3.42;;
80136;SDS011;69466;55.948;37.484;2023-08-08T03:40:26;6.05;;;3.05;;
80136;SDS011;69466;55.948;37.484;2023-08-08T03:42:52;7.00;;;3.17;;
80136;SDS011;69466;55.948;37.484;2023-08-08T03:45:18;5.82;;;3.35;;
80136;SDS011;69466;55.948;37.484;2023-08-08T03:47:45;7.78;;;3.17;;
80136;SDS011;69466;55.948;37.484;2023-08-08T03:50:11;5.00;;;3.10;;
80136;SDS011;69466;55.948;37.484;2023-08-08T03:52:37;7.00;;;3.60;;
80136;SDS011;69466;55.948;37.484;2023-08-08T03:55:07;6.45;;;2.90;;
80136;SDS011;69466;55.948;37.484;2023-08-08T03:57:34;4.90;;;3.28;;
80136;SDS011;69466;55.948;37.484;2023-08-08T04:00:00;5.20;;;2.90;;
80136;SDS011;69466;55.948;37.484;2023-08-08T04:02:26;5.20;;;3.28;;
80136;SDS011;69466;55.948;37.484;2023-08-08T04:04:53;4.70;;;3.15;;
80136;SDS011;69466;55.948;37.484;2023-08-08T04:07:19;9.10;;;3.35;;
80136;SDS011;69466;55.948;37.484;2023-08-08T04:09:48;4.70;;;3.28;;
80136;SDS011;69466;55.948;37.484;2023-08-08T04:12:13;5.53;;;3.20;;
80136;SDS011;69466;55.948;37.484;2023-08-08T04:14:39;6.53;;;3.38;;
80136;SDS011;69466;55.948;37.484;2023-08-08T04:17:05;7.53;;;3.67;;
80136;SDS011;69466;55.948;37.484;2023-08-08T04:19:31;7.10;;;3.30;;
80136;SDS011;69466;55.948;37.484;2023-08-08T04:21:57;6.88;;;3.50;;
80136;SDS011;69466;55.948;37.484;2023-08-08T04:24:23;7.28;;;3.45;;
80136;SDS011;69466;55.948;37.484;2023-08-08T04:26:49;10.43;;;3.72;;
80136;SDS011;69466;55.948;37.484;2023-08-08T04:29:14;7.05;;;3.65;;
80136;SDS011;69466;55.948;37.484;2023-08-08T04:31:40;6.93;;;3.25;;
80136;SDS011;69466;55.948;37.484;2023-08-08T04:34:06;5.28;;;3.40;;
80136;SDS011;69466;55.948;37.484;2023-08-08T04:36:32;7.72;;;3.85;;
80136;SDS011;69466;55.948;37.484;2023-08-08T04:38:58;6.85;;;4.30;;
80136;SDS011;69466;55.948;37.484;2023-08-08T04:41:24;7.05;;;3.80;;
80136;SDS011;69466;55.948;37.484;2023-08-08T04:43:50;6.38;;;3.63;;
80136;SDS011;69466;55.948;37.484;2023-08-08T04:46:16;6.15;;;3.60;;
80136;SDS011;69466;55.948;37.484;2023-08-08T04:48:42;5.68;;;3.28;;
80136;SDS011;69466;55.948;37.484;2023-08-08T04:51:08;7.00;;;3.47;;
80136;SDS011;69466;55.948;37.484;2023-08-08T04:53:34;7.25;;;3.67;;
80136;SDS011;69466;55.948;37.484;2023-08-08T04:56:00;7.43;;;4.53;;
80136;SDS011;69466;55.948;37.484;2023-08-08T04:58:26;7.15;;;3.78;;
80136;SDS011;69466;55.948;37.484;2023-08-08T05:00:52;5.97;;;3.63;;
80136;SDS011;69466;55.948;37.484;2023-08-08T05:03:18;5.53;;;3.22;;
80136;SDS011;69466;55.948;37.484;2023-08-08T05:05:44;8.23;;;3.90;;
80136;SDS011;69466;55.948;37.484;2023-08-08T05:08:10;10.52;;;4.20;;
80136;SDS011;69466;55.948;37.484;2023-08-08T05:10:37;6.90;;;4.03;;
80136;SDS011;69466;55.948;37.484;2023-08-08T05:13:03;6.90;;;4.03;;
80136;SDS011;69466;55.948;37.484;2023-08-08T05:15:29;5.75;;;4.03;;
80136;SDS011;69466;55.948;37.484;2023-08-08T05:17:55;14.15;;;4.13;;
80136;SDS011;69466;55.948;37.484;2023-08-08T05:20:21;7.35;;;4.40;;
80136;SDS011;69466;55.948;37.484;2023-08-08T05:22:47;5.47;;;3.97;;
80136;SDS011;69466;55.948;37.484;2023-08-08T05:25:13;6.45;;;3.75;;
80136;SDS011;69466;55.948;37.484;2023-08-08T05:27:39;7.32;;;3.88;;
80136;SDS011;69466;55.948;37.484;2023-08-08T05:30:06;6.72;;;4.03;;
80136;SDS011;69466;55.948;37.484;2023-08-08T05:32:32;9.65;;;5.05;;
80136;SDS011;69466;55.948;37.484;2023-08-08T05:34:58;5.47;;;3.72;;
80136;SDS011;69466;55.948;37.484;2023-08-08T05:37:25;5.93;;;4.07;;
80136;SDS011;69466;55.948;37.484;2023-08-08T05:39:53;7.88;;;4.50;;
80136;SDS011;69466;55.948;37.484;2023-08-08T05:42:19;8.70;;;4.25;;
80136;SDS011;69466;55.948;37.484;2023-08-08T05:44:44;7.03;;;4.07;;
80136;SDS011;69466;55.948;37.484;2023-08-08T05:47:10;10.43;;;4.45;;
80136;SDS011;69466;55.948;37.484;2023-08-08T05:49:37;10.10;;;5.15;;
80136;SDS011;69466;55.948;37.484;2023-08-08T05:52:04;9.35;;;4.65;;
80136;SDS011;69466;55.948;37.484;2023-08-08T05:54:30;10.57;;;5.10;;
80136;SDS011;69466;55.948;37.484;2023-08-08T05:56:56;7.50;;;4.25;;
80136;SDS011;69466;55.948;37.484;2023-08-08T05:59:22;6.78;;;4.18;;
80136;SDS011;69466;55.948;37.484;2023-08-08T06:01:48;8.90;;;4.80;;
80136;SDS011;69466;55.948;37.484;2023-08-08T06:04:13;7.50;;;4.00;;
80136;SDS011;69466;55.948;37.484;2023-08-08T06:06:39;7.38;;;4.63;;
80136;SDS011;69466;55.948;37.484;2023-08-08T06:09:05;7.18;;;4.22;;
80136;SDS011;69466;55.948;37.484;2023-08-08T06:11:31;9.75;;;4.63;;
80136;SDS011;69466;55.948;37.484;2023-08-08T06:13:57;7.03;;;4.30;;
80136;SDS011;69466;55.948;37.484;2023-08-08T06:16:23;8.73;;;4.53;;
80136;SDS011;69466;55.948;37.484;2023-08-08T06:18:49;10.27;;;5.10;;
80136;SDS011;69466;55.948;37.484;2023-08-08T06:21:14;7.20;;;4.10;;
80136;SDS011;69466;55.948;37.484;2023-08-08T06:23:40;9.00;;;4.75;;
80136;SDS011;69466;55.948;37.484;2023-08-08T06:26:06;6.63;;;4.05;;
80136;SDS011;69466;55.948;37.484;2023-08-08T06:28:32;10.15;;;4.72;;
80136;SDS011;69466;55.948;37.484;2023-08-08T06:30:58;7.32;;;4.50;;
80136;SDS011;69466;55.948;37.484;2023-08-08T06:33:24;8.77;;;4.90;;
80136;SDS011;69466;55.948;37.484;2023-08-08T06:35:50;8.77;;;5.35;;
80136;SDS011;69466;55.948;37.484;2023-08-08T06:38:16;8.70;;;5.15;;
80136;SDS011;69466;55.948;37.484;2023-08-08T06:40:42;9.55;;;4.50;;
80136;SDS011;69466;55.948;37.484;2023-08-08T06:43:07;10.73;;;5.53;;
80136;SDS011;69466;55.948;37.484;2023-08-08T06:45:33;11.85;;;4.88;;
80136;SDS011;69466;55.948;37.484;2023-08-08T06:48:02;11.13;;;5.22;;
80136;SDS011;69466;55.948;37.484;2023-08-08T06:50:28;8.32;;;5.05;;
80136;SDS011;69466;55.948;37.484;2023-08-08T06:52:54;11.13;;;4.95;;
80136;SDS011;69466;55.948;37.484;2023-08-08T06:55:20;10.95;;;5.07;;
80136;SDS011;69466;55.948;37.484;2023-08-08T06:57:46;9.77;;;4.93;;
80136;SDS011;69466;55.948;37.484;2023-08-08T07:00:12;10.25;;;5.07;;
80136;SDS011;69466;55.948;37.484;2023-08-08T07:02:39;10.55;;;5.15;;
80136;SDS011;69466;55.948;37.484;2023-08-08T07:05:06;11.90;;;5.65;;
80136;SDS011;69466;55.948;37.484;2023-08-08T07:07:32;7.05;;;4.80;;
80136;SDS011;69466;55.948;37.484;2023-08-08T07:09:58;16.27;;;5.07;;
80136;SDS011;69466;55.948;37.484;2023-08-08T07:12:25;7.47;;;4.55;;
80136;SDS011;69466;55.948;37.484;2023-08-08T07:14:51;7.60;;;4.85;;
80136;SDS011;69466;55.948;37.484;2023-08-08T07:17:17;9.85;;;5.43;;
80136;SDS011;69466;55.948;37.484;2023-08-08T07:19:42;10.00;;;4.80;;
80136;SDS011;69466;55.948;37.484;2023-08-08T07:22:08;11.18;;;5.20;;
80136;SDS011;69466;55.948;37.484;2023-08-08T07:24:34;15.93;;;4.88;;
80136;SDS011;69466;55.948;37.484;2023-08-08T07:27:00;9.20;;;5.15;;
80136;SDS011;69466;55.948;37.484;2023-08-08T07:29:26;10.95;;;5.55;;
80136;SDS011;69466;55.948;37.484;2023-08-08T07:31:52;9.57;;;5.28;;
80136;SDS011;69466;55.948;37.484;2023-08-08T07:34:18;9.98;;;6.15;;
80136;SDS011;69466;55.948;37.484;2023-08-08T07:36:44;9.90;;;5.00;;
80136;SDS011;69466;55.948;37.484;2023-08-08T07:39:10;11.15;;;5.35;;
80136;SDS011;69466;55.948;37.484;2023-08-08T07:41:37;13.10;;;6.00;;
80136;SDS011;69466;55.948;37.484;2023-08-08T07:46:30;12.82;;;6.07;;
80136;SDS011;69466;55.948;37.484;2023-08-08T07:48:57;9.32;;;5.80;;
80136;SDS011;69466;55.948;37.484;2023-08-08T07:51:25;7.43;;;5.38;;
80136;SDS011;69466;55.948;37.484;2023-08-08T07:53:51;8.82;;;4.97;;
80136;SDS011;69466;55.948;37.484;2023-08-08T07:56:17;13.27;;;5.53;;
80136;SDS011;69466;55.948;37.484;2023-08-08T07:58:43;8.45;;;5.55;;
80136;SDS011;69466;55.948;37.484;2023-08-08T08:01:09;10.30;;;6.32;;
80136;SDS011;69466;55.948;37.484;2023-08-08T08:03:35;9.55;;;5.45;;
80136;SDS011;69466;55.948;37.484;2023-08-08T08:06:00;8.60;;;5.70;;
80136;SDS011;69466;55.948;37.484;2023-08-08T08:08:26;10.55;;;5.80;;
80136;SDS011;69466;55.948;37.484;2023-08-08T08:10:52;11.88;;;5.38;;
80136;SDS011;69466;55.948;37.484;2023-08-08T08:13:18;11.82;;;6.38;;
80136;SDS011;69466;55.948;37.484;2023-08-08T08:15:44;10.60;;;6.10;;
80136;SDS011;69466;55.948;37.484;2023-08-08T08:18:10;9.43;;;5.07;;
80136;SDS011;69466;55.948;37.484;2023-08-08T08:20:38;8.73;;;5.68;;
80136;SDS011;69466;55.948;37.484;2023-08-08T08:23:04;7.43;;;5.60;;
80136;SDS011;69466;55.948;37.484;2023-08-08T08:25:30;9.15;;;5.85;;
80136;SDS011;69466;55.948;37.484;2023-08-08T08:27:57;10.38;;;5.88;;
80136;SDS011;69466;55.948;37.484;2023-08-08T08:30:23;9.20;;;5.50;;
80136;SDS011;69466;55.948;37.484;2023-08-08T08:32:51;11.88;;;5.40;;
80136;SDS011;69466;55.948;37.484;2023-08-08T08:35:17;8.02;;;5.35;;
80136;SDS011;69466;55.948;37.484;2023-08-08T08:37:44;11.43;;;5.78;;
80136;SDS011;69466;55.948;37.484;2023-08-08T08:40:10;8.50;;;5.95;;
80136;SDS011;69466;55.948;37.484;2023-08-08T08:42:37;10.27;;;6.38;;
80136;SDS011;69466;55.948;37.484;2023-08-08T08:45:04;13.43;;;7.20;;
80136;SDS011;69466;55.948;37.484;2023-08-08T08:47:32;8.82;;;5.97;;
80136;SDS011;69466;55.948;37.484;2023-08-08T08:50:01;12.80;;;7.25;;
80136;SDS011;69466;55.948;37.484;2023-08-08T08:52:30;9.18;;;6.20;;
80136;SDS011;69466;55.948;37.484;2023-08-08T08:54:56;9.00;;;6.32;;
80136;SDS011;69466;55.948;37.484;2023-08-08T08:57:23;14.18;;;6.30;;
80136;SDS011;69466;55.948;37.484;2023-08-08T08:59:49;15.15;;;6.35;;
80136;SDS011;69466;55.948;37.484;2023-08-08T09:02:16;7.97;;;5.72;;
80136;SDS011;69466;55.948;37.484;2023-08-08T09:04:46;11.85;;;6.78;;
80136;SDS011;69466;55.948;37.484;2023-08-08T09:07:12;8.35;;;5.70;;
80136;SDS011;69466;55.948;37.484;2023-08-08T09:09:42;11.57;;;6.60;;
80136;SDS011;69466;55.948;37.484;2023-08-08T09:12:09;10.93;;;6.20;;
80136;SDS011;69466;55.948;37.484;2023-08-08T09:14:39;12.93;;;6.90;;
80136;SDS011;69466;55.948;37.484;2023-08-08T09:17:13;10.52;;;6.53;;
80136;SDS011;69466;55.948;37.484;2023-08-08T09:19:45;12.68;;;6.63;;
80136;SDS011;69466;55.948;37.484;2023-08-08T09:22:12;11.45;;;6.78;;
80136;SDS011;69466;55.948;37.484;2023-08-08T09:24:39;12.18;;;6.35;;
80136;SDS011;69466;55.948;37.484;2023-08-08T09:27:09;13.23;;;6.57;;
80136;SDS011;69466;55.948;37.484;2023-08-08T09:29:36;10.45;;;6.38;;
80136;SDS011;69466;55.948;37.484;2023-08-08T09:32:03;9.02;;;6.57;;
80136;SDS011;69466;55.948;37.484;2023-08-08T09:34:30;12.75;;;6.75;;
80136;SDS011;69466;55.948;37.484;2023-08-08T09:36:56;11.80;;;7.35;;
80136;SDS011;69466;55.948;37.484;2023-08-08T09:39:22;12.30;;;7.43;;
80136;SDS011;69466;55.948;37.484;2023-08-08T09:41:48;11.75;;;6.82;;
80136;SDS011;69466;55.948;37.484;2023-08-08T09:44:15;11.77;;;6.82;;
80136;SDS011;69466;55.948;37.484;2023-08-08T09:46:41;15.07;;;7.55;;
80136;SDS011;69466;55.948;37.484;2023-08-08T09:49:08;12.55;;;7.28;;
80136;SDS011;69466;55.948;37.484;2023-08-08T09:51:36;11.65;;;7.38;;
80136;SDS011;69466;55.948;37.484;2023-08-08T09:54:02;16.92;;;7.60;;
80136;SDS011;69466;55.948;37.484;2023-08-08T09:56:32;11.43;;;8.32;;
80136;SDS011;69466;55.948;37.484;2023-08-08T09:59:00;11.73;;;7.50;;
80136;SDS011;69466;55.948;37.484;2023-08-08T10:01:27;11.55;;;8.55;;
80136;SDS011;69466;55.948;37.484;2023-08-08T10:03:54;12.98;;;8.05;;
80136;SDS011;69466;55.948;37.484;2023-08-08T10:06:21;10.45;;;6.80;;
80136;SDS011;69466;55.948;37.484;2023-08-08T10:08:47;12.95;;;8.15;;
80136;SDS011;69466;55.948;37.484;2023-08-08T10:11:13;11.13;;;8.10;;
80136;SDS011;69466;55.948;37.484;2023-08-08T10:13:46;15.90;;;8.75;;
80136;SDS011;69466;55.948;37.484;2023-08-08T10:16:15;14.20;;;8.43;;
80136;SDS011;69466;55.948;37.484;2023-08-08T10:18:42;13.23;;;8.52;;
80136;SDS011;69466;55.948;37.484;2023-08-08T10:21:08;13.13;;;7.90;;
80136;SDS011;69466;55.948;37.484;2023-08-08T10:23:36;11.15;;;7.82;;
80136;SDS011;69466;55.948;37.484;2023-08-08T10:26:03;11.95;;;8.18;;
80136;SDS011;69466;55.948;37.484;2023-08-08T10:28:29;12.43;;;8.77;;
80136;SDS011;69466;55.948;37.484;2023-08-08T10:30:59;14.38;;;8.40;;
80136;SDS011;69466;55.948;37.484;2023-08-08T10:33:28;11.88;;;8.73;;
80136;SDS011;69466;55.948;37.484;2023-08-08T10:36:05;14.63;;;9.07;;
80136;SDS011;69466;55.948;37.484;2023-08-08T10:41:10;14.82;;;8.63;;
80136;SDS011;69466;55.948;37.484;2023-08-08T10:43:37;14.15;;;9.38;;
80136;SDS011;69466;55.948;37.484;2023-08-08T10:46:03;22.27;;;8.90;;
80136;SDS011;69466;55.948;37.484;2023-08-08T10:48:30;16.98;;;8.57;;
80136;SDS011;69466;55.948;37.484;2023-08-08T10:51:00;17.42;;;9.25;;
80136;SDS011;69466;55.948;37.484;2023-08-08T10:53:27;15.93;;;9.15;;
80136;SDS011;69466;55.948;37.484;2023-08-08T10:56:00;14.32;;;8.63;;
80136;SDS011;69466;55.948;37.484;2023-08-08T10:58:37;12.18;;;7.95;;
80136;SDS011;69466;55.948;37.484;2023-08-08T11:01:05;16.70;;;8.18;;
80136;SDS011;69466;55.948;37.484;2023-08-08T11:03:35;14.82;;;7.55;;
80136;SDS011;69466;55.948;37.484;2023-08-08T11:06:02;12.60;;;7.95;;
80136;SDS011;69466;55.948;37.484;2023-08-08T11:08:29;12.63;;;7.95;;
80136;SDS011;69466;55.948;37.484;2023-08-08T11:10:57;13.23;;;8.43;;
80136;SDS011;69466;55.948;37.484;2023-08-08T11:13:23;17.17;;;8.93;;
80136;SDS011;69466;55.948;37.484;2023-08-08T11:15:49;15.75;;;8.35;;
80136;SDS011;69466;55.948;37.484;2023-08-08T11:18:16;11.40;;;6.80;;
80136;SDS011;69466;55.948;37.484;2023-08-08T11:20:42;16.42;;;7.38;;
80136;SDS011;69466;55.948;37.484;2023-08-08T11:23:09;11.32;;;7.50;;
80136;SDS011;69466;55.948;37.484;2023-08-08T11:25:42;14.75;;;7.30;;
80136;SDS011;69466;55.948;37.484;2023-08-08T11:28:10;15.13;;;7.47;;
80136;SDS011;69466;55.948;37.484;2023-08-08T11:30:39;10.93;;;7.32;;
80136;SDS011;69466;55.948;37.484;2023-08-08T11:33:07;11.25;;;6.55;;
80136;SDS011;69466;55.948;37.484;2023-08-08T11:35:33;10.65;;;6.68;;
80136;SDS011;69466;55.948;37.484;2023-08-08T11:37:59;11.98;;;7.18;;
80136;SDS011;69466;55.948;37.484;2023-08-08T11:40:27;12.90;;;7.60;;
80136;SDS011;69466;55.948;37.484;2023-08-08T11:42:55;13.68;;;7.55;;
80136;SDS011;69466;55.948;37.484;2023-08-08T11:45:24;13.73;;;7.25;;
80136;SDS011;69466;55.948;37.484;2023-08-08T11:47:51;11.73;;;6.47;;
80136;SDS011;69466;55.948;37.484;2023-08-08T11:50:20;11.93;;;6.60;;
80136;SDS011;69466;55.948;37.484;2023-08-08T11:52:53;11.57;;;6.97;;
80136;SDS011;69466;55.948;37.484;2023-08-08T11:55:20;13.55;;;7.72;;
80136;SDS011;69466;55.948;37.484;2023-08-08T11:57:53;10.50;;;6.68;;
80136;SDS011;69466;55.948;37.484;2023-08-08T12:00:26;10.23;;;7.03;;
80136;SDS011;69466;55.948;37.484;2023-08-08T12:02:54;13.32;;;7.95;;
80136;SDS011;69466;55.948;37.484;2023-08-08T12:05:21;10.75;;;7.18;;
80136;SDS011;69466;55.948;37.484;2023-08-08T12:07:48;15.23;;;8.38;;
80136;SDS011;69466;55.948;37.484;2023-08-08T12:10:15;14.00;;;8.07;;
80136;SDS011;69466;55.948;37.484;2023-08-08T12:12:45;13.23;;;7.30;;
80136;SDS011;69466;55.948;37.484;2023-08-08T12:15:12;13.43;;;7.47;;
80136;SDS011;69466;55.948;37.484;2023-08-08T12:17:39;9.10;;;7.15;;
80136;SDS011;69466;55.948;37.484;2023-08-08T12:20:06;12.38;;;7.82;;
80136;SDS011;69466;55.948;37.484;2023-08-08T12:22:35;15.60;;;8.52;;
80136;SDS011;69466;55.948;37.484;2023-08-08T12:25:01;16.90;;;9.13;;
80136;SDS011;69466;55.948;37.484;2023-08-08T12:27:29;10.50;;;8.00;;
80136;SDS011;69466;55.948;37.484;2023-08-08T12:29:56;20.80;;;10.10;;
80136;SDS011;69466;55.948;37.484;2023-08-08T12:32:24;15.32;;;8.23;;
80136;SDS011;69466;55.948;37.484;2023-08-08T12:34:52;11.02;;;7.88;;
80136;SDS011;69466;55.948;37.484;2023-08-08T12:37:18;14.25;;;7.75;;
80136;SDS011;69466;55.948;37.484;2023-08-08T12:39:43;11.85;;;7.45;;
80136;SDS011;69466;55.948;37.484;2023-08-08T12:42:09;11.82;;;9.02;;
80136;SDS011;69466;55.948;37.484;2023-08-08T12:44:35;13.23;;;8.68;;
80136;SDS011;69466;55.948;37.484;2023-08-08T12:47:01;12.63;;;8.70;;
80136;SDS011;69466;55.948;37.484;2023-08-08T12:49:27;11.95;;;7.22;;
80136;SDS011;69466;55.948;37.484;2023-08-08T12:51:53;13.93;;;8.43;;
80136;SDS011;69466;55.948;37.484;2023-08-08T12:54:21;12.77;;;8.60;;
80136;SDS011;69466;55.948;37.484;2023-08-08T12:56:47;9.65;;;8.18;;
80136;SDS011;69466;55.948;37.484;2023-08-08T12:59:13;12.00;;;8.82;;
80136;SDS011;69466;55.948;37.484;2023-08-08T13:01:39;13.25;;;8.35;;
80136;SDS011;69466;55.948;37.484;2023-08-08T13:04:05;13.38;;;9.07;;
80136;SDS011;69466;55.948;37.484;2023-08-08T13:06:31;13.57;;;8.65;;
80136;SDS011;69466;55.948;37.484;2023-08-08T13:08:58;15.32;;;9.73;;
80136;SDS011;69466;55.948;37.484;2023-08-08T13:11:25;16.30;;;9.15;;
80136;SDS011;69466;55.948;37.484;2023-08-08T13:13:52;12.85;;;9.95;;
80136;SDS011;69466;55.948;37.484;2023-08-08T13:16:18;15.00;;;10.27;;
80136;SDS011;69466;55.948;37.484;2023-08-08T13:18:44;15.18;;;10.77;;
80136;SDS011;69466;55.948;37.484;2023-08-08T13:21:10;13.05;;;10.38;;
80136;SDS011;69466;55.948;37.484;2023-08-08T13:23:36;17.40;;;11.05;;
80136;SDS011;69466;55.948;37.484;2023-08-08T13:26:02;14.77;;;9.80;;
80136;SDS011;69466;55.948;37.484;2023-08-08T13:28:29;18.48;;;9.73;;
80136;SDS011;69466;55.948;37.484;2023-08-08T13:30:55;15.90;;;10.52;;
80136;SDS011;69466;55.948;37.484;2023-08-08T13:33:21;16.65;;;10.80;;
80136;SDS011;69466;55.948;37.484;2023-08-08T13:35:47;14.02;;;10.40;;
80136;SDS011;69466;55.948;37.484;2023-08-08T13:38:13;17.85;;;12.18;;
80136;SDS011;69466;55.948;37.484;2023-08-08T13:40:41;15.75;;;12.07;;
80136;SDS011;69466;55.948;37.484;2023-08-08T13:43:07;17.13;;;10.52;;
80136;SDS011;69466;55.948;37.484;2023-08-08T13:45:34;25.85;;;12.18;;
80136;SDS011;69466;55.948;37.484;2023-08-08T13:48:00;15.65;;;11.20;;
80136;SDS011;69466;55.948;37.484;2023-08-08T13:50:26;17.73;;;11.05;;
80136;SDS011;69466;55.948;37.484;2023-08-08T13:52:52;16.58;;;11.75;;
80136;SDS011;69466;55.948;37.484;2023-08-08T13:55:18;16.38;;;11.57;;
80136;SDS011;69466;55.948;37.484;2023-08-08T13:57:45;21.85;;;13.10;;
80136;SDS011;69466;55.948;37.484;2023-08-08T14:00:11;16.50;;;11.18;;
80136;SDS011;69466;55.948;37.484;2023-08-08T14:02:38;13.90;;;9.82;;
80136;SDS011;69466;55.948;37.484;2023-08-08T14:05:05;17.73;;;10.43;;
80136;SDS011;69466;55.948;37.484;2023-08-08T14:07:34;14.10;;;10.57;;
80136;SDS011;69466;55.948;37.484;2023-08-08T14:10:01;16.83;;;10.30;;
80136;SDS011;69466;55.948;37.484;2023-08-08T14:12:29;19.30;;;11.27;;
80136;SDS011;69466;55.948;37.484;2023-08-08T14:14:55;16.92;;;11.10;;
80136;SDS011;69466;55.948;37.484;2023-08-08T14:17:21;16.35;;;10.40;;
80136;SDS011;69466;55.948;37.484;2023-08-08T14:19:47;16.63;;;10.05;;
80136;SDS011;69466;55.948;37.484;2023-08-08T14:22:13;19.30;;;11.73;;
80136;SDS011;69466;55.948;37.484;2023-08-08T14:24:40;18.75;;;11.73;;
80136;SDS011;69466;55.948;37.484;2023-08-08T14:27:07;19.95;;;11.45;;
80136;SDS011;69466;55.948;37.484;2023-08-08T14:29:33;21.30;;;11.15;;
80136;SDS011;69466;55.948;37.484;2023-08-08T14:31:59;19.30;;;10.05;;
80136;SDS011;69466;55.948;37.484;2023-08-08T14:34:28;21.20;;;12.15;;